Time;durP1;ratioP1;P1;durP2;ratioP2;P2;SDS_P1;SDS_P2;PMS_P1;PMS_P2;Temp;Humidity;BMP_temperature;BMP_pressure;BME280_temperature;BME280_humidity;BME280_pressure;Samples;Min_cycle;Max_cycle;Signal;HPM_P1;HPM_P2
2023/11/05 00:02:21;;;;;;;27.42;11.15;;;;;;;7.92;100.00;98549.34;5037898;28;20068;-38
2023/11/05 00:04:47;;;;;;;32.53;11.25;;;;;;;7.93;100.00;98548.47;5035105;28;20037;-39
2023/11/05 00:07:13;;;;;;;35.60;12.30;;;;;;;7.94;100.00;98529.44;5046903;28;20087;-40
2023/11/05 00:09:38;;;;;;;32.67;11.43;;;;;;;7.82;100.00;98509.25;5032437;28;20037;-40
2023/11/05 00:12:04;;;;;;;30.08;12.20;;;;;;;8.00;100.00;98533.53;5032386;28;20053;-39
2023/11/05 00:14:32;;;;;;;26.25;10.82;;;;;;;7.97;100.00;98518.94;5029071;28;20532;-38
2023/11/05 00:16:58;;;;;;;35.33;12.52;;;;;;;8.01;100.00;98511.88;5030592;28;20046;-41
2023/11/05 00:19:25;;;;;;;27.70;11.32;;;;;;;8.02;100.00;98536.88;5030821;28;20071;-40
2023/11/05 00:21:51;;;;;;;28.80;11.02;;;;;;;8.03;100.00;98523.03;5029929;28;20049;-39
2023/11/05 00:24:18;;;;;;;27.55;11.10;;;;;;;8.03;100.00;98516.09;5029064;28;20044;-41
2023/11/05 00:26:44;;;;;;;34.50;10.93;;;;;;;8.05;100.00;98511.72;5031228;28;20083;-38
2023/11/05 00:29:10;;;;;;;33.13;12.15;;;;;;;8.08;100.00;98496.03;5029607;28;20131;-39
2023/11/05 00:31:36;;;;;;;29.23;11.88;;;;;;;8.09;100.00;98496.88;5032021;28;20051;-39
2023/11/05 00:34:02;;;;;;;35.03;13.15;;;;;;;8.08;100.00;98493.44;5031526;28;20037;-40
2023/11/05 00:36:28;;;;;;;27.20;11.55;;;;;;;8.11;100.00;98496.81;5044252;28;20033;-39
2023/11/05 00:38:56;;;;;;;29.92;12.93;;;;;;;8.07;100.00;98468.47;5028567;28;20044;-39
2023/11/05 00:41:22;;;;;;;29.67;12.15;;;;;;;8.08;100.00;98464.13;5037467;28;20564;-40
2023/11/05 00:43:48;;;;;;;32.83;12.40;;;;;;;8.13;100.00;98482.91;5050625;28;20041;-40
2023/11/05 00:46:14;;;;;;;33.72;12.43;;;;;;;8.18;100.00;98490.47;5030810;28;20045;-39
2023/11/05 00:48:40;;;;;;;29.42;11.82;;;;;;;8.20;100.00;98466.19;5029387;28;20048;-40
2023/11/05 00:51:06;;;;;;;28.63;11.43;;;;;;;8.23;100.00;98453.09;5035442;28;20074;-39
2023/11/05 00:53:32;;;;;;;28.85;11.93;;;;;;;8.20;100.00;98445.50;5050359;28;20045;-39
2023/11/05 00:55:58;;;;;;;23.38;10.43;;;;;;;8.26;100.00;98467.69;5033558;28;20049;-38
2023/11/05 00:58:24;;;;;;;33.95;12.40;;;;;;;8.24;100.00;98451.34;5030084;28;20048;-39
2023/11/05 01:00:50;;;;;;;40.15;13.38;;;;;;;8.27;100.00;98452.06;5049681;28;20041;-38
2023/11/05 01:03:16;;;;;;;27.23;10.70;;;;;;;8.33;100.00;98438.03;5046444;28;20045;-38
2023/11/05 01:05:42;;;;;;;26.60;9.65;;;;;;;8.29;100.00;98441.63;5034418;28;20048;-39
2023/11/05 01:08:08;;;;;;;39.38;11.45;;;;;;;8.24;100.00;98425.47;5031669;28;20551;-39
2023/11/05 01:10:34;;;;;;;29.55;12.75;;;;;;;8.19;100.00;98464.50;5053739;28;20056;-39
2023/11/05 01:12:59;;;;;;;32.95;12.30;;;;;;;8.20;100.00;98462.75;5032843;28;20045;-39
2023/11/05 01:15:26;;;;;;;27.17;10.70;;;;;;;8.08;100.00;98446.88;5033025;28;20107;-39
2023/11/05 01:17:52;;;;;;;29.00;11.15;;;;;;;8.16;100.00;98474.16;5033354;28;20037;-39
2023/11/05 01:20:18;;;;;;;23.10;8.80;;;;;;;8.15;100.00;98455.22;5034468;28;20037;-38
2023/11/05 01:22:43;;;;;;;20.98;9.75;;;;;;;8.08;100.00;98462.41;5032333;28;20047;-39
2023/11/05 01:25:10;;;;;;;26.98;11.45;;;;;;;8.10;100.00;98446.81;5049522;28;20088;-39
2023/11/05 01:27:37;;;;;;;33.20;11.57;;;;;;;8.11;100.00;98437.28;5033927;28;20096;-38
2023/11/05 01:30:03;;;;;;;28.77;10.52;;;;;;;8.02;100.00;98421.25;5034231;28;20069;-38
2023/11/05 01:32:32;;;;;;;26.42;11.27;;;;;;;8.20;100.00;98448.06;5051232;28;20057;-39
2023/11/05 01:34:59;;;;;;;31.33;11.95;;;;;;;8.22;100.00;98435.88;5036406;28;20071;-39
2023/11/05 01:37:25;;;;;;;28.58;12.38;;;;;;;8.25;100.00;98430.59;5037927;28;20048;-41
2023/11/05 01:39:50;;;;;;;28.17;11.13;;;;;;;8.27;100.00;98456.41;5051691;28;20029;-39
2023/11/05 01:42:16;;;;;;;28.83;13.00;;;;;;;8.24;100.00;98438.41;5040691;28;20052;-39
2023/11/05 01:44:42;;;;;;;31.02;11.77;;;;;;;7.94;100.00;98381.09;5034531;28;20044;-40
2023/11/05 01:47:09;;;;;;;33.92;12.35;;;;;;;8.28;100.00;98453.75;5032871;28;20618;-39
2023/11/05 01:49:35;;;;;;;22.48;9.57;;;;;;;8.28;100.00;98445.13;5023807;28;20125;-39
2023/11/05 01:52:01;;;;;;;28.92;11.65;;;;;;;8.31;100.00;98447.63;5015265;28;20461;-38
2023/11/05 01:54:27;;;;;;;22.67;10.85;;;;;;;8.22;100.00;98428.13;5049683;28;20071;-40
2023/11/05 01:56:53;;;;;;;28.38;11.13;;;;;;;8.37;100.00;98437.81;5033122;28;20038;-39
2023/11/05 01:59:19;;;;;;;29.10;11.00;;;;;;;8.40;100.00;98450.63;5050910;28;20045;-40
2023/11/05 02:01:46;;;;;;;34.63;13.13;;;;;;;8.41;100.00;98408.31;5035211;28;20037;-39
2023/11/05 02:04:12;;;;;;;24.42;11.25;;;;;;;8.47;100.00;98427.91;5048664;28;20049;-40
2023/11/05 02:06:38;;;;;;;28.58;12.65;;;;;;;8.45;100.00;98407.25;5033792;28;20041;-39
2023/11/05 02:09:04;;;;;;;24.77;10.57;;;;;;;8.31;100.00;98390.66;5033849;28;20049;-40
2023/11/05 02:11:30;;;;;;;29.23;10.77;;;;;;;8.43;100.00;98416.81;5032387;28;20072;-39
2023/11/05 02:13:56;;;;;;;28.77;12.63;;;;;;;8.15;100.00;98362.03;5041785;28;20065;-40
2023/11/05 02:16:25;;;;;;;30.25;13.02;;;;;;;8.53;100.00;98417.22;5030596;28;20672;-40
2023/11/05 02:18:52;;;;;;;26.08;11.63;;;;;;;8.57;100.00;98408.44;5030215;28;20092;-39
2023/11/05 02:21:41;;;;;;;27.50;12.23;;;;;;;8.60;100.00;98415.22;5032605;28;20037;-40
2023/11/05 02:24:08;;;;;;;34.08;13.38;;;;;;;8.65;100.00;98423.59;5033342;28;20045;-41
2023/11/05 02:26:33;;;;;;;30.20;12.18;;;;;;;8.67;100.00;98404.50;5032384;28;20076;-39
2023/11/05 02:28:59;;;;;;;30.85;12.70;;;;;;;8.64;100.00;98396.00;5047447;28;20073;-39
2023/11/05 02:31:25;;;;;;;25.27;12.15;;;;;;;8.72;100.00;98399.94;5033354;28;20060;-39
2023/11/05 02:33:51;;;;;;;30.20;12.80;;;;;;;8.74;100.00;98389.50;5034350;28;20517;-41
2023/11/05 02:36:18;;;;;;;27.33;12.20;;;;;;;8.60;100.00;98358.22;5040045;28;20091;-38
2023/11/05 02:38:44;;;;;;;24.27;10.02;;;;;;;8.79;100.00;98401.31;5037271;28;20069;-39
2023/11/05 02:41:11;;;;;;;26.98;12.50;;;;;;;8.82;100.00;98366.66;5032446;28;20111;-40
2023/11/05 02:43:38;;;;;;;26.48;11.68;;;;;;;8.88;100.00;98368.94;5047661;28;20051;-39
2023/11/05 02:46:05;;;;;;;22.45;10.82;;;;;;;8.91;100.00;98348.06;5029538;28;20041;-39
2023/11/05 02:48:32;;;;;;;24.67;11.73;;;;;;;8.97;100.00;98352.94;5044958;28;20046;-38
2023/11/05 02:50:59;;;;;;;29.48;13.55;;;;;;;8.97;100.00;98339.13;5038152;28;20038;-39
2023/11/05 02:53:25;;;;;;;26.95;12.15;;;;;;;9.00;100.00;98350.22;5047689;28;20045;-38
2023/11/05 02:55:52;;;;;;;28.15;12.93;;;;;;;9.04;100.00;98364.69;5028742;28;20060;-38
2023/11/05 02:58:18;;;;;;;27.65;12.63;;;;;;;9.03;100.00;98368.19;5031557;28;20041;-39
2023/11/05 03:00:44;;;;;;;22.40;12.27;;;;;;;9.05;100.00;98370.72;5030616;28;20520;-39
2023/11/05 03:03:11;;;;;;;22.63;11.63;;;;;;;9.01;100.00;98362.22;5030039;28;20139;-39
2023/11/05 03:05:40;;;;;;;26.02;12.25;;;;;;;9.06;100.00;98374.97;5039527;28;20135;-38
2023/11/05 03:08:06;;;;;;;24.45;12.15;;;;;;;9.08;100.00;98365.38;5031720;28;20049;-39
2023/11/05 03:10:32;;;;;;;25.70;12.30;;;;;;;9.14;100.00;98349.53;5029294;28;20045;-38
2023/11/05 03:12:58;;;;;;;21.48;11.00;;;;;;;9.16;100.00;98360.66;5031815;28;20087;-40
2023/11/05 03:15:24;;;;;;;19.05;9.95;;;;;;;9.19;100.00;98350.13;5029809;28;20047;-38
2023/11/05 03:17:50;;;;;;;20.10;11.13;;;;;;;9.19;100.00;98350.97;5032681;28;20037;-39
2023/11/05 03:20:17;;;;;;;18.48;10.38;;;;;;;9.23;100.00;98341.28;5031507;28;20100;-40
2023/11/05 03:22:43;;;;;;;20.38;10.25;;;;;;;9.05;100.00;98318.88;5046913;28;20041;-40
2023/11/05 03:25:10;;;;;;;22.73;10.40;;;;;;;9.16;100.00;98309.63;5032832;28;20045;-40
2023/11/05 03:27:37;;;;;;;21.90;10.70;;;;;;;9.31;100.00;98342.59;5032671;28;20044;-39
2023/11/05 03:30:04;;;;;;;19.33;10.40;;;;;;;9.00;100.00;98300.97;5029771;28;20232;-39
2023/11/05 03:32:32;;;;;;;17.02;9.18;;;;;;;9.10;100.00;98290.97;5027317;28;20037;-40
2023/11/05 03:34:58;;;;;;;19.30;10.20;;;;;;;9.35;100.00;98322.50;5030531;28;20036;-39
2023/11/05 03:37:25;;;;;;;15.50;8.63;;;;;;;9.40;100.00;98319.69;5032696;28;20442;-39
2023/11/05 03:39:51;;;;;;;18.70;10.70;;;;;;;9.41;100.00;98314.41;5035627;28;20040;-38
2023/11/05 03:42:17;;;;;;;17.95;9.63;;;;;;;9.24;100.00;98286.75;5049369;28;20037;-40
2023/11/05 03:44:43;;;;;;;20.48;10.32;;;;;;;9.46;100.00;98311.59;5032498;28;20426;-39
2023/11/05 03:47:09;;;;;;;18.48;10.52;;;;;;;9.47;100.00;98295.09;5031683;28;20132;-39
2023/11/05 03:49:35;;;;;;;18.95;10.40;;;;;;;9.53;100.00;98300.78;5038047;28;20575;-39
2023/11/05 03:52:03;;;;;;;18.70;10.68;;;;;;;9.51;100.00;98297.47;5031095;28;20044;-40
2023/11/05 03:54:29;;;;;;;15.95;9.63;;;;;;;9.43;100.00;98284.03;5029455;28;20119;-39
2023/11/05 03:56:57;;;;;;;19.27;10.80;;;;;;;9.54;100.00;98289.50;5040243;28;20045;-41
2023/11/05 03:59:24;;;;;;;15.98;9.13;;;;;;;9.58;100.00;98306.56;5032373;28;20037;-40
2023/11/05 04:01:51;;;;;;;14.68;8.45;;;;;;;9.61;100.00;98303.84;5027123;28;20472;-39
2023/11/05 04:04:17;;;;;;;17.17;8.77;;;;;;;9.46;99.84;98270.91;5032186;28;20045;-39
2023/11/05 04:06:44;;;;;;;18.92;10.13;;;;;;;9.57;99.77;98278.97;5029861;28;20157;-38
2023/11/05 04:09:09;;;;;;;20.55;10.07;;;;;;;9.71;99.51;98291.22;5025425;28;20041;-39
2023/11/05 04:11:36;;;;;;;12.05;7.68;;;;;;;9.76;99.44;98315.16;5034745;28;20048;-39
2023/11/05 04:14:02;;;;;;;16.92;9.73;;;;;;;9.77;99.24;98303.88;5032654;28;20038;-39
2023/11/05 04:16:28;;;;;;;16.27;8.93;;;;;;;9.76;98.97;98292.66;5036279;28;20155;-39
2023/11/05 04:18:54;;;;;;;13.63;8.63;;;;;;;9.77;98.53;98276.16;5031143;28;20052;-40
2023/11/05 04:21:20;;;;;;;14.38;8.63;;;;;;;9.79;98.74;98284.69;5049363;28;20037;-40
2023/11/05 04:23:46;;;;;;;13.77;8.38;;;;;;;9.82;98.57;98272.47;5035690;28;20429;-40
2023/11/05 04:26:13;;;;;;;14.45;8.73;;;;;;;9.84;98.25;98262.88;5035774;28;20041;-40
2023/11/05 04:28:40;;;;;;;14.55;8.10;;;;;;;9.82;97.96;98265.53;5036029;28;20502;-39
2023/11/05 04:31:06;;;;;;;12.25;7.65;;;;;;;9.82;98.34;98252.56;5049678;28;20041;-39
2023/11/05 04:33:32;;;;;;;14.10;8.05;;;;;;;9.85;97.90;98256.72;5042023;28;20037;-42
2023/11/05 04:35:59;;;;;;;12.10;8.05;;;;;;;9.88;97.92;98256.56;5035690;28;20091;-39
2023/11/05 04:38:25;;;;;;;12.90;7.82;;;;;;;9.63;97.59;98198.19;5037118;28;20048;-39
2023/11/05 04:40:51;;;;;;;9.57;6.53;;;;;;;9.91;97.65;98269.38;5034717;28;20431;-40
2023/11/05 04:43:17;;;;;;;13.90;8.77;;;;;;;9.94;97.86;98246.72;5033562;28;20136;-40
2023/11/05 04:45:43;;;;;;;17.75;8.65;;;;;;;10.01;97.44;98257.56;5033881;28;20040;-40
2023/11/05 04:48:11;;;;;;;14.80;8.07;;;;;;;10.02;96.99;98267.03;5035160;28;20072;-39
2023/11/05 04:50:37;;;;;;;12.75;7.93;;;;;;;9.76;96.41;98232.13;5034758;28;20620;-39
2023/11/05 04:53:03;;;;;;;11.15;6.60;;;;;;;10.04;96.53;98249.63;5034905;28;20036;-40
2023/11/05 04:55:29;;;;;;;14.13;8.48;;;;;;;10.06;96.35;98240.81;5035899;28;20076;-39
2023/11/05 04:57:58;;;;;;;11.60;8.20;;;;;;;9.89;96.53;98203.75;5040869;28;20477;-39
2023/11/05 05:00:24;;;;;;;11.95;7.97;;;;;;;10.08;96.10;98238.16;5034567;28;20048;-39
2023/11/05 05:02:50;;;;;;;14.60;8.52;;;;;;;10.11;95.90;98223.22;5035038;28;20547;-39
2023/11/05 05:05:16;;;;;;;12.10;6.38;;;;;;;10.12;96.03;98229.25;5031202;28;20037;-40
2023/11/05 05:07:43;;;;;;;12.02;7.45;;;;;;;9.96;95.33;98225.84;5025625;28;20775;-39
2023/11/05 05:10:09;;;;;;;15.73;8.10;;;;;;;10.14;95.70;98256.84;5034620;28;20033;-41
2023/11/05 05:12:36;;;;;;;10.77;6.65;;;;;;;10.02;95.23;98233.28;5034361;28;20053;-40
2023/11/05 05:15:05;;;;;;;12.85;7.72;;;;;;;10.22;94.91;98259.00;5032969;28;20425;-39
2023/11/05 05:17:32;;;;;;;11.35;7.47;;;;;;;10.25;95.01;98274.44;5037325;28;20948;-40
2023/11/05 05:20:02;;;;;;;12.00;7.00;;;;;;;10.27;95.00;98261.34;5029699;28;20513;-41
2023/11/05 05:22:31;;;;;;;16.45;7.72;;;;;;;10.25;94.32;98227.69;5035961;28;20113;-42
2023/11/05 05:24:58;;;;;;;12.85;7.45;;;;;;;10.28;94.63;98242.25;5034207;28;20049;-39
2023/11/05 05:27:24;;;;;;;10.18;6.72;;;;;;;10.27;94.12;98249.22;5049262;28;20406;-39
2023/11/05 05:29:51;;;;;;;10.75;6.38;;;;;;;10.30;93.73;98237.81;5033918;28;20056;-40
2023/11/05 05:32:17;;;;;;;10.70;6.82;;;;;;;10.29;93.80;98233.53;5041439;28;20063;-39
2023/11/05 05:34:44;;;;;;;12.30;7.10;;;;;;;10.29;93.73;98230.94;5050830;28;20113;-39
2023/11/05 05:37:10;;;;;;;9.40;6.32;;;;;;;10.29;93.69;98217.97;5032734;28;20044;-39
2023/11/05 05:39:36;;;;;;;11.70;7.15;;;;;;;10.14;93.40;98194.50;5034362;28;20052;-39
2023/11/05 05:42:05;;;;;;;9.60;6.10;;;;;;;10.30;93.33;98212.69;5032284;28;20087;-39
2023/11/05 05:44:31;;;;;;;12.27;7.10;;;;;;;10.32;93.18;98222.97;5032629;28;20099;-39
2023/11/05 05:47:00;;;;;;;8.23;5.20;;;;;;;10.28;93.23;98209.34;5033889;28;20152;-40
2023/11/05 05:49:26;;;;;;;13.73;8.00;;;;;;;10.32;93.51;98212.59;5049408;28;20069;-38
2023/11/05 05:51:52;;;;;;;10.90;6.13;;;;;;;10.34;92.89;98211.59;5032161;28;20546;-40
2023/11/05 05:54:18;;;;;;;10.75;6.45;;;;;;;10.34;92.81;98201.19;5032095;28;20460;-39
2023/11/05 05:56:44;;;;;;;10.45;6.70;;;;;;;10.22;92.90;98212.28;5032990;28;20091;-41
2023/11/05 05:59:09;;;;;;;12.57;6.65;;;;;;;10.39;92.02;98206.13;5039004;28;20505;-39
2023/11/05 06:01:36;;;;;;;10.00;5.47;;;;;;;10.37;92.48;98194.97;5037024;28;20033;-40
2023/11/05 06:04:02;;;;;;;9.75;6.60;;;;;;;10.40;92.13;98189.63;5033815;28;20041;-39
2023/11/05 06:06:28;;;;;;;12.95;5.95;;;;;;;10.43;91.47;98203.25;5034170;28;20044;-40
2023/11/05 06:08:54;;;;;;;11.65;7.28;;;;;;;10.47;91.78;98183.13;5033427;28;20045;-39
2023/11/05 06:11:20;;;;;;;11.38;5.97;;;;;;;10.33;91.50;98165.75;5047551;28;20041;-41
2023/11/05 06:13:46;;;;;;;13.32;6.82;;;;;;;10.50;91.10;98160.41;5040736;28;20044;-40
2023/11/05 06:16:12;;;;;;;14.93;6.35;;;;;;;10.41;91.21;98160.13;5028072;28;20578;-39
2023/11/05 06:18:38;;;;;;;13.38;7.30;;;;;;;10.57;90.81;98171.31;5033891;28;20041;-40
2023/11/05 06:21:04;;;;;;;13.15;6.88;;;;;;;10.43;91.29;98130.50;5033815;28;20041;-40
2023/11/05 06:23:30;;;;;;;10.85;6.68;;;;;;;10.61;90.15;98184.03;5033176;28;20051;-41
2023/11/05 06:25:56;;;;;;;11.20;6.85;;;;;;;10.64;90.40;98190.78;5032900;28;20041;-40
2023/11/05 06:28:22;;;;;;;8.80;5.47;;;;;;;10.67;89.96;98190.63;5032584;28;20041;-40
2023/11/05 06:30:47;;;;;;;9.15;5.72;;;;;;;10.64;90.03;98157.00;5033497;28;20543;-39
2023/11/05 06:33:13;;;;;;;10.43;6.55;;;;;;;10.64;89.94;98180.38;5035602;28;20053;-40
2023/11/05 06:35:39;;;;;;;10.13;5.75;;;;;;;10.68;90.08;98178.47;5052065;28;20476;-40
2023/11/05 06:38:06;;;;;;;9.38;6.28;;;;;;;10.68;89.42;98161.09;5040540;28;20033;-40
2023/11/05 06:40:32;;;;;;;8.60;5.53;;;;;;;10.69;89.46;98173.16;5039013;28;20033;-38
2023/11/05 06:42:57;;;;;;;8.23;5.53;;;;;;;10.66;89.47;98188.94;5046636;28;20118;-40
2023/11/05 06:45:23;;;;;;;9.60;6.32;;;;;;;10.71;89.01;98167.88;5046349;28;20087;-39
2023/11/05 06:47:51;;;;;;;8.20;5.50;;;;;;;10.71;88.69;98163.53;5047576;28;20037;-41
2023/11/05 06:50:16;;;;;;;9.65;6.82;;;;;;;10.73;89.06;98161.66;5035527;28;20068;-40
2023/11/05 06:52:42;;;;;;;8.73;4.90;;;;;;;10.76;88.43;98186.63;5033364;28;20753;-39
2023/11/05 06:55:08;;;;;;;9.50;6.00;;;;;;;10.57;88.47;98135.72;5048414;28;20053;-40
2023/11/05 06:57:37;;;;;;;10.70;5.50;;;;;;;10.75;88.10;98126.00;5047773;28;20575;-39
2023/11/05 07:00:05;;;;;;;8.75;6.07;;;;;;;10.55;88.20;98109.03;5022436;28;20048;-39
2023/11/05 07:02:34;;;;;;;10.32;6.05;;;;;;;10.74;88.44;98147.72;5041937;28;20038;-41
2023/11/05 07:05:04;;;;;;;9.40;6.03;;;;;;;10.77;87.90;98129.38;5040070;28;20544;-39
2023/11/05 07:07:32;;;;;;;10.75;6.28;;;;;;;10.60;87.58;98119.13;5032094;28;20065;-39
2023/11/05 07:10:00;;;;;;;12.10;6.28;;;;;;;10.67;87.55;98120.44;5065743;28;20036;-39
2023/11/05 07:12:27;;;;;;;7.10;4.85;;;;;;;10.81;87.16;98149.06;5054013;28;20135;-39
2023/11/05 07:14:53;;;;;;;7.22;4.97;;;;;;;10.86;87.47;98133.16;5045129;28;20086;-39
2023/11/05 07:17:19;;;;;;;9.65;5.50;;;;;;;10.88;87.18;98107.94;5032101;28;20041;-37
2023/11/05 07:19:46;;;;;;;7.90;4.72;;;;;;;10.87;86.57;98096.69;5031125;28;20051;-39
2023/11/05 07:22:13;;;;;;;9.57;6.07;;;;;;;11.00;86.55;98097.59;5040811;28;20059;-40
2023/11/05 07:24:40;;;;;;;6.72;4.63;;;;;;;11.04;85.89;98101.69;5049834;28;20041;-39
2023/11/05 07:27:06;;;;;;;9.85;5.72;;;;;;;11.08;85.83;98075.50;5051197;28;20038;-39
2023/11/05 07:29:32;;;;;;;6.88;5.13;;;;;;;11.17;85.47;98069.72;5059419;28;20110;-38
2023/11/05 07:31:58;;;;;;;7.53;5.05;;;;;;;11.15;84.49;98106.22;5036506;28;20044;-40
2023/11/05 07:34:25;;;;;;;9.60;6.03;;;;;;;11.15;84.39;98114.03;5047472;28;20044;-39
2023/11/05 07:36:51;;;;;;;10.15;5.55;;;;;;;11.14;84.83;98122.78;5031516;28;20045;-39
2023/11/05 07:39:18;;;;;;;13.15;6.35;;;;;;;11.17;84.35;98101.78;5067654;28;20413;-39
2023/11/05 07:41:44;;;;;;;10.25;5.45;;;;;;;11.24;84.73;98108.28;5050969;28;20044;-43
2023/11/05 07:44:10;;;;;;;9.77;4.75;;;;;;;11.20;84.28;98091.16;5043768;28;20508;-42
2023/11/05 07:46:36;;;;;;;8.82;5.30;;;;;;;11.30;83.89;98146.09;5046367;28;20052;-40
2023/11/05 07:49:05;;;;;;;10.88;5.72;;;;;;;11.34;83.93;98121.53;5042839;28;20045;-41
2023/11/05 07:51:32;;;;;;;10.00;4.45;;;;;;;11.42;84.15;98134.88;5035149;28;20044;-40
2023/11/05 07:53:59;;;;;;;7.20;4.28;;;;;;;11.42;83.38;98137.50;5029908;28;20524;-40
2023/11/05 07:56:25;;;;;;;5.78;4.40;;;;;;;11.40;82.83;98142.81;5039632;28;20044;-41
2023/11/05 07:58:51;;;;;;;5.90;3.60;;;;;;;11.44;83.03;98148.66;5031161;28;20470;-39
2023/11/05 08:01:17;;;;;;;7.80;4.95;;;;;;;11.19;82.28;98086.91;5034750;28;20102;-41
2023/11/05 08:03:43;;;;;;;8.77;5.30;;;;;;;11.52;82.25;98119.53;5039799;28;20139;-39
2023/11/05 08:06:09;;;;;;;6.72;4.30;;;;;;;11.57;81.68;98112.25;5034649;28;20061;-40
2023/11/05 08:08:34;;;;;;;8.48;4.13;;;;;;;11.60;81.21;98133.75;5031910;28;20037;-40
2023/11/05 08:11:00;;;;;;;6.97;4.75;;;;;;;11.48;80.88;98090.28;5036341;28;20049;-39
2023/11/05 08:13:26;;;;;;;6.18;4.55;;;;;;;11.67;80.66;98108.97;5038024;28;20053;-40
2023/11/05 08:15:52;;;;;;;9.98;4.88;;;;;;;11.56;80.36;98121.03;5039132;28;20728;-40
2023/11/05 08:18:18;;;;;;;8.40;4.63;;;;;;;11.77;79.77;98112.72;5036080;28;20045;-39
2023/11/05 08:20:44;;;;;;;7.95;4.25;;;;;;;11.68;79.07;98061.19;5047388;28;20123;-40
2023/11/05 08:23:11;;;;;;;8.25;4.88;;;;;;;11.86;78.95;98080.88;5030541;28;20038;-40
2023/11/05 08:25:37;;;;;;;7.10;4.60;;;;;;;11.80;78.65;98077.84;5036227;28;20043;-40
2023/11/05 08:28:03;;;;;;;8.85;4.32;;;;;;;11.86;78.70;98051.41;5033283;28;20131;-39
2023/11/05 08:30:28;;;;;;;7.22;4.53;;;;;;;11.89;78.25;98040.78;5019109;28;20080;-40
2023/11/05 08:32:54;;;;;;;6.65;4.18;;;;;;;11.86;78.27;98080.03;5032853;28;20069;-40
2023/11/05 08:35:21;;;;;;;7.68;4.78;;;;;;;11.91;78.17;98041.50;5035191;28;20047;-40
2023/11/05 08:37:48;;;;;;;8.63;4.63;;;;;;;11.74;77.98;98031.38;5033076;28;20441;-41
2023/11/05 08:40:15;;;;;;;12.02;5.00;;;;;;;11.75;77.89;98020.88;5007894;28;20048;-41
2023/11/05 08:42:42;;;;;;;6.57;4.40;;;;;;;11.89;77.47;98007.75;5032604;28;20738;-39
2023/11/05 08:45:08;;;;;;;7.60;3.92;;;;;;;11.83;77.57;98008.16;5031028;28;20496;-40
2023/11/05 08:47:34;;;;;;;7.35;4.65;;;;;;;11.86;77.76;97988.91;5035238;28;20041;-41
2023/11/05 08:50:03;;;;;;;7.60;4.47;;;;;;;11.93;77.67;98013.63;5024818;28;20066;-40
2023/11/05 08:52:31;;;;;;;9.48;4.45;;;;;;;11.99;77.23;98030.56;5031650;28;20087;-39
2023/11/05 08:55:03;;;;;;;8.43;4.45;;;;;;;11.99;76.85;98041.00;5039039;28;20071;-39
2023/11/05 08:57:31;;;;;;;6.57;4.20;;;;;;;12.02;76.47;98010.41;5048629;28;20053;-41
2023/11/05 08:59:57;;;;;;;7.32;4.07;;;;;;;12.12;75.64;98021.03;5030956;28;20084;-39
2023/11/05 09:02:23;;;;;;;7.25;4.90;;;;;;;12.35;75.62;97996.88;5036127;28;20068;-43
2023/11/05 09:04:50;;;;;;;8.82;4.28;;;;;;;12.73;73.91;98028.94;5038083;28;20037;-40
2023/11/05 09:07:16;;;;;;;9.55;4.10;;;;;;;12.78;73.07;98012.13;5050885;28;20104;-42
2023/11/05 09:09:42;;;;;;;10.30;4.43;;;;;;;12.87;72.78;98014.09;5036096;28;20132;-41
2023/11/05 09:12:10;;;;;;;8.80;4.57;;;;;;;13.24;71.95;97992.28;5036481;28;20130;-41
2023/11/05 09:14:37;;;;;;;11.77;4.43;;;;;;;13.65;69.77;97986.69;5044262;28;20039;-39
2023/11/05 09:17:07;;;;;;;10.60;4.70;;;;;;;14.07;68.09;97987.03;5034865;28;20162;-40
2023/11/05 09:19:34;;;;;;;6.45;4.13;;;;;;;14.55;66.16;97985.91;5044508;28;20451;-41
2023/11/05 09:22:00;;;;;;;9.45;4.53;;;;;;;14.73;64.67;97953.13;5040272;28;20043;-41
2023/11/05 09:24:29;;;;;;;8.10;4.32;;;;;;;14.98;63.89;97945.94;5033139;28;20167;-42
2023/11/05 09:26:55;;;;;;;6.47;3.88;;;;;;;15.04;62.92;97967.22;5038375;28;20033;-42
2023/11/05 09:29:21;;;;;;;8.75;3.70;;;;;;;15.12;62.66;97936.03;5037998;28;20049;-41
2023/11/05 09:31:49;;;;;;;7.43;4.28;;;;;;;15.16;62.12;97916.50;5042614;28;20123;-41
2023/11/05 09:34:16;;;;;;;7.68;4.20;;;;;;;15.31;61.84;97955.47;5033296;28;20041;-43
2023/11/05 09:36:42;;;;;;;12.93;4.78;;;;;;;15.01;62.19;97935.22;5032308;28;20041;-42
2023/11/05 09:39:09;;;;;;;9.05;4.18;;;;;;;14.68;62.80;97947.41;5041991;28;20037;-44
2023/11/05 09:41:38;;;;;;;8.95;4.60;;;;;;;14.50;63.01;97925.31;5042514;28;20044;-43
2023/11/05 09:44:07;;;;;;;7.65;4.22;;;;;;;14.34;63.20;97898.69;5039313;28;20061;-42
2023/11/05 09:46:34;;;;;;;6.68;4.20;;;;;;;14.50;62.84;97956.69;4999334;28;20136;-42
2023/11/05 09:49:01;;;;;;;7.57;4.25;;;;;;;14.44;63.11;97964.19;5046750;28;20049;-41
2023/11/05 09:51:27;;;;;;;7.75;4.40;;;;;;;14.50;63.33;97953.25;5034197;28;20049;-40
2023/11/05 09:53:52;;;;;;;7.07;4.25;;;;;;;14.57;63.02;97950.03;5036158;28;20039;-42
2023/11/05 09:56:18;;;;;;;7.95;4.00;;;;;;;14.73;62.43;97934.81;5041606;28;20067;-42
2023/11/05 09:58:45;;;;;;;8.60;4.25;;;;;;;14.87;61.73;97938.09;5033333;28;20048;-42
2023/11/05 10:01:11;;;;;;;8.57;4.35;;;;;;;14.85;62.01;97925.16;5034219;28;20088;-42
2023/11/05 10:03:38;;;;;;;7.55;4.18;;;;;;;14.66;62.45;97898.78;5033132;28;20091;-42
2023/11/05 10:06:06;;;;;;;10.25;4.45;;;;;;;14.58;62.92;97924.72;5037756;28;20048;-41
2023/11/05 10:08:36;;;;;;;8.18;4.65;;;;;;;14.49;63.18;97917.59;5042741;28;20180;-41
2023/11/05 10:11:05;;;;;;;6.25;4.32;;;;;;;14.43;63.51;97939.81;5030093;28;20067;-42
2023/11/05 10:13:31;;;;;;;14.23;5.63;;;;;;;14.40;63.62;97925.19;5034916;28;20143;-41
2023/11/05 10:16:03;;;;;;;5.32;3.78;;;;;;;14.24;63.25;97913.41;5034974;28;20037;-43
2023/11/05 10:18:33;;;;;;;7.68;4.80;;;;;;;14.22;64.21;97917.94;5032594;28;20571;-41
2023/11/05 10:20:59;;;;;;;10.48;4.95;;;;;;;14.22;64.54;97916.16;5034943;28;20033;-41
2023/11/05 10:23:26;;;;;;;6.85;4.30;;;;;;;14.22;64.71;97931.00;5038440;28;20041;-41
2023/11/05 10:25:53;;;;;;;6.38;4.18;;;;;;;14.18;64.58;97943.47;5032957;28;20486;-40
2023/11/05 10:28:20;;;;;;;8.85;4.50;;;;;;;14.16;65.00;97929.69;5038435;28;20531;-41
2023/11/05 10:30:48;;;;;;;9.75;4.45;;;;;;;14.23;64.67;97932.66;5035968;28;20610;-40
2023/11/05 10:33:14;;;;;;;7.35;4.03;;;;;;;14.24;65.05;97945.59;5037284;28;20041;-40
2023/11/05 10:35:40;;;;;;;5.00;3.25;;;;;;;14.31;64.83;97935.50;5027272;28;20048;-43
2023/11/05 10:38:08;;;;;;;9.80;4.50;;;;;;;14.22;65.12;97923.16;5033678;28;20060;-42
2023/11/05 10:40:34;;;;;;;5.80;4.10;;;;;;;14.08;65.36;97934.66;5025046;28;20126;-40
2023/11/05 10:43:00;;;;;;;8.30;3.97;;;;;;;13.78;65.93;97911.69;5030515;28;20036;-42
2023/11/05 10:45:26;;;;;;;9.20;4.85;;;;;;;13.91;66.31;97950.78;5036131;28;20096;-41
2023/11/05 10:47:52;;;;;;;12.30;5.68;;;;;;;13.86;66.51;97935.47;5032306;28;20613;-40
2023/11/05 10:50:21;;;;;;;7.18;4.30;;;;;;;13.87;66.84;97934.50;5032696;28;20047;-40
2023/11/05 10:52:49;;;;;;;9.27;4.43;;;;;;;13.84;66.94;97913.00;5032581;28;20540;-41
2023/11/05 10:55:15;;;;;;;10.20;4.60;;;;;;;13.81;67.07;97926.31;5035662;28;20070;-41
2023/11/05 10:57:46;;;;;;;10.30;4.57;;;;;;;13.78;67.61;97932.59;5032754;28;20148;-43
2023/11/05 11:00:16;;;;;;;10.32;4.80;;;;;;;13.76;67.80;97936.28;5034060;28;20041;-41
2023/11/05 11:02:42;;;;;;;8.68;3.97;;;;;;;13.79;67.77;97956.94;5031456;28;20040;-42
2023/11/05 11:05:09;;;;;;;9.30;4.50;;;;;;;13.61;68.04;97893.84;5045406;28;20036;-41
2023/11/05 11:07:38;;;;;;;7.13;4.03;;;;;;;13.82;67.86;97922.72;5038265;28;20052;-41
2023/11/05 11:10:12;;;;;;;9.23;4.80;;;;;;;14.09;67.40;97914.56;5042003;28;20903;-41
2023/11/05 11:12:38;;;;;;;13.38;4.97;;;;;;;14.25;66.43;97939.41;5047217;28;20049;-44
2023/11/05 11:15:07;;;;;;;12.70;4.20;;;;;;;14.17;66.43;97948.81;5031417;28;20472;-43
2023/11/05 11:17:34;;;;;;;11.38;5.03;;;;;;;14.13;66.80;97913.41;5038072;28;20103;-41
2023/11/05 11:20:21;;;;;;;12.02;4.57;;;;;;;14.07;66.97;97930.41;5034850;28;20049;-39
2023/11/05 11:22:48;;;;;;;7.22;4.38;;;;;;;13.98;67.18;97944.13;5025687;28;20102;-41
2023/11/05 11:25:17;;;;;;;10.50;4.78;;;;;;;13.96;67.40;97941.66;5036417;28;20083;-39